<?xml version="1.0" encoding="UTF-8" standalone="no" ?>
<gpx xmlns="http://www.topografix.com/GPX/1/1" xmlns:xsi="http://www.w3.org/2001/XMLSchema-instance" xsi:schemaLocation="http://www.topografix.com/GPX/1/1 http://www.topografix.com/GPX/1/1/gpx.xsd" version="1.1" creator="VisuGPX - https://www.visugpx.com">
  <metadata>
    <name>Moulin de Gourvineg Circuit à partir de Le Porlair</name>
  </metadata>
  <trk>
    <name><![CDATA[Moulin de Gourvineg Circuit à partir de Le Porlair]]></name>
    <trkseg>
      <trkpt lat="47.68522" lon="-2.69555">
        <ele>56.766977</ele>
        <time>2022-09-17T12:39:41.389Z</time>
      </trkpt>
      <trkpt lat="47.68592" lon="-2.69422">
        <ele>57.348946</ele>
        <time>2022-09-17T12:40:09.295Z</time>
      </trkpt>
      <trkpt lat="47.68631" lon="-2.6935">
        <ele>58.932275</ele>
        <time>2022-09-17T12:40:32.180Z</time>
      </trkpt>
      <trkpt lat="47.68658" lon="-2.69244">
        <ele>60.841442</ele>
        <time>2022-09-17T12:41:03.634Z</time>
      </trkpt>
      <trkpt lat="47.68652" lon="-2.69242">
        <ele>60.98412</ele>
        <time>2022-09-17T12:41:05.621Z</time>
      </trkpt>
      <trkpt lat="47.68658" lon="-2.69214">
        <ele>61.56628</ele>
        <time>2022-09-17T12:41:12.765Z</time>
      </trkpt>
      <trkpt lat="47.68677" lon="-2.69106">
        <ele>64.332888</ele>
        <time>2022-09-17T12:41:39.728Z</time>
      </trkpt>
      <trkpt lat="47.68671" lon="-2.69084">
        <ele>64.939089</ele>
        <time>2022-09-17T12:41:47.208Z</time>
      </trkpt>
      <trkpt lat="47.68651" lon="-2.69031">
        <ele>66.431424</ele>
        <time>2022-09-17T12:42:05.990Z</time>
      </trkpt>
      <trkpt lat="47.68653" lon="-2.68996">
        <ele>67.310532</ele>
        <time>2022-09-17T12:42:16.456Z</time>
      </trkpt>
      <trkpt lat="47.68668" lon="-2.68946">
        <ele>68.841131</ele>
        <time>2022-09-17T12:42:33.212Z</time>
      </trkpt>
      <trkpt lat="47.68668" lon="-2.68936">
        <ele>69.164991</ele>
        <time>2022-09-17T12:42:36.896Z</time>
      </trkpt>
      <trkpt lat="47.68683" lon="-2.68925">
        <ele>69.943319</ele>
        <time>2022-09-17T12:42:43.343Z</time>
      </trkpt>
      <trkpt lat="47.68684" lon="-2.6893">
        <ele>70.123048</ele>
        <time>2022-09-17T12:42:44.538Z</time>
      </trkpt>
      <trkpt lat="47.68702" lon="-2.68928">
        <ele>70.939914</ele>
        <time>2022-09-17T12:42:51.184Z</time>
      </trkpt>
      <trkpt lat="47.68699" lon="-2.68923">
        <ele>71.150999</ele>
        <time>2022-09-17T12:42:53.249Z</time>
      </trkpt>
      <trkpt lat="47.687" lon="-2.68901">
        <ele>71.845073</ele>
        <time>2022-09-17T12:42:57.747Z</time>
      </trkpt>
      <trkpt lat="47.6875" lon="-2.68691">
        <ele>79.520623</ele>
        <time>2022-09-17T12:44:09.263Z</time>
      </trkpt>
      <trkpt lat="47.68755" lon="-2.68639">
        <ele>81.637531</ele>
        <time>2022-09-17T12:44:27.851Z</time>
      </trkpt>
      <trkpt lat="47.68764" lon="-2.68571">
        <ele>84.476289</ele>
        <time>2022-09-17T12:44:54.288Z</time>
      </trkpt>
      <trkpt lat="47.6877" lon="-2.68535">
        <ele>85.987628</ele>
        <time>2022-09-17T12:45:07.568Z</time>
      </trkpt>
      <trkpt lat="47.68799" lon="-2.6837">
        <ele>88.918655</ele>
        <time>2022-09-17T12:45:58.212Z</time>
      </trkpt>
      <trkpt lat="47.68852" lon="-2.68051">
        <ele>87.485066</ele>
        <time>2022-09-17T12:46:35.103Z</time>
      </trkpt>
      <trkpt lat="47.689" lon="-2.67754">
        <ele>82.588831</ele>
        <time>2022-09-17T12:47:06.603Z</time>
      </trkpt>
      <trkpt lat="47.68906" lon="-2.67743">
        <ele>82.366424</ele>
        <time>2022-09-17T12:47:08.309Z</time>
      </trkpt>
      <trkpt lat="47.68913" lon="-2.67742">
        <ele>82.288077</ele>
        <time>2022-09-17T12:47:09.783Z</time>
      </trkpt>
      <trkpt lat="47.68968" lon="-2.67755">
        <ele>84.038918</ele>
        <time>2022-09-17T12:47:30.630Z</time>
      </trkpt>
      <trkpt lat="47.69068" lon="-2.67797">
        <ele>87.314586</ele>
        <time>2022-09-17T12:48:25.645Z</time>
      </trkpt>
      <trkpt lat="47.69115" lon="-2.67782">
        <ele>89.684816</ele>
        <time>2022-09-17T12:48:56.451Z</time>
      </trkpt>
      <trkpt lat="47.69161" lon="-2.6775">
        <ele>92.741599</ele>
        <time>2022-09-17T12:49:28.347Z</time>
      </trkpt>
      <trkpt lat="47.69172" lon="-2.67737">
        <ele>93.634713</ele>
        <time>2022-09-17T12:49:37.498Z</time>
      </trkpt>
      <trkpt lat="47.69255" lon="-2.67716">
        <ele>98.690976</ele>
        <time>2022-09-17T12:50:32.720Z</time>
      </trkpt>
      <trkpt lat="47.6932" lon="-2.67655">
        <ele>101.027794</ele>
        <time>2022-09-17T12:51:13.222Z</time>
      </trkpt>
      <trkpt lat="47.69342" lon="-2.67644">
        <ele>101.732419</ele>
        <time>2022-09-17T12:51:25.410Z</time>
      </trkpt>
      <trkpt lat="47.69302" lon="-2.67618">
        <ele>103.041043</ele>
        <time>2022-09-17T12:51:44.492Z</time>
      </trkpt>
      <trkpt lat="47.69221" lon="-2.67391">
        <ele>104.09079</ele>
        <time>2022-09-17T12:52:37.966Z</time>
      </trkpt>
      <trkpt lat="47.69206" lon="-2.6735">
        <ele>104.077652</ele>
        <time>2022-09-17T12:52:47.401Z</time>
      </trkpt>
      <trkpt lat="47.69182" lon="-2.6732">
        <ele>104.532778</ele>
        <time>2022-09-17T12:52:57.893Z</time>
      </trkpt>
      <trkpt lat="47.69156" lon="-2.67238">
        <ele>106.011091</ele>
        <time>2022-09-17T12:53:21.095Z</time>
      </trkpt>
      <trkpt lat="47.69309" lon="-2.67255">
        <ele>110.937251</ele>
        <time>2022-09-17T12:54:38.610Z</time>
      </trkpt>
      <trkpt lat="47.69341" lon="-2.67236">
        <ele>112.539064</ele>
        <time>2022-09-17T12:54:59.287Z</time>
      </trkpt>
      <trkpt lat="47.69487" lon="-2.67147">
        <ele>119.337333</ele>
        <time>2022-09-17T12:56:28.505Z</time>
      </trkpt>
      <trkpt lat="47.69484" lon="-2.67142">
        <ele>119.53102</ele>
        <time>2022-09-17T12:56:31.815Z</time>
      </trkpt>
      <trkpt lat="47.69536" lon="-2.67068">
        <ele>122.276706</ele>
        <time>2022-09-17T12:57:07.754Z</time>
      </trkpt>
      <trkpt lat="47.69546" lon="-2.67025">
        <ele>123.431374</ele>
        <time>2022-09-17T12:57:21.072Z</time>
      </trkpt>
      <trkpt lat="47.69567" lon="-2.66974">
        <ele>124.055632</ele>
        <time>2022-09-17T12:57:38.556Z</time>
      </trkpt>
      <trkpt lat="47.69593" lon="-2.66952">
        <ele>124.407008</ele>
        <time>2022-09-17T12:57:49.719Z</time>
      </trkpt>
      <trkpt lat="47.69641" lon="-2.66911">
        <ele>125.067315</ele>
        <time>2022-09-17T12:58:09.754Z</time>
      </trkpt>
      <trkpt lat="47.69645" lon="-2.66898">
        <ele>125.17703</ele>
        <time>2022-09-17T12:58:12.972Z</time>
      </trkpt>
      <trkpt lat="47.69641" lon="-2.66869">
        <ele>125.410693</ele>
        <time>2022-09-17T12:58:19.852Z</time>
      </trkpt>
      <trkpt lat="47.69622" lon="-2.66848">
        <ele>125.694684</ele>
        <time>2022-09-17T12:58:27.984Z</time>
      </trkpt>
      <trkpt lat="47.69584" lon="-2.66731">
        <ele>126.408648</ele>
        <time>2022-09-17T12:58:57.571Z</time>
      </trkpt>
      <trkpt lat="47.69551" lon="-2.66664">
        <ele>126.849096</ele>
        <time>2022-09-17T12:59:17.659Z</time>
      </trkpt>
      <trkpt lat="47.69552" lon="-2.66621">
        <ele>127.080377</ele>
        <time>2022-09-17T12:59:28.683Z</time>
      </trkpt>
      <trkpt lat="47.69585" lon="-2.66479">
        <ele>128.50845</ele>
        <time>2022-09-17T13:00:07.835Z</time>
      </trkpt>
      <trkpt lat="47.69603" lon="-2.66424">
        <ele>129.136226</ele>
        <time>2022-09-17T13:00:24.542Z</time>
      </trkpt>
      <trkpt lat="47.69599" lon="-2.66404">
        <ele>129.349613</ele>
        <time>2022-09-17T13:00:30.239Z</time>
      </trkpt>
      <trkpt lat="47.69587" lon="-2.66394">
        <ele>129.564895</ele>
        <time>2022-09-17T13:00:36.066Z</time>
      </trkpt>
      <trkpt lat="47.69587" lon="-2.66372">
        <ele>129.79454</ele>
        <time>2022-09-17T13:00:42.204Z</time>
      </trkpt>
      <trkpt lat="47.69636" lon="-2.66207">
        <ele>131.546544</ele>
        <time>2022-09-17T13:01:29.960Z</time>
      </trkpt>
      <trkpt lat="47.69685" lon="-2.66073">
        <ele>132.834083</ele>
        <time>2022-09-17T13:02:09.329Z</time>
      </trkpt>
      <trkpt lat="47.69759" lon="-2.65905">
        <ele>134.045888</ele>
        <time>2022-09-17T13:02:57.855Z</time>
      </trkpt>
      <trkpt lat="47.69773" lon="-2.65875">
        <ele>134.149496</ele>
        <time>2022-09-17T13:03:06.240Z</time>
      </trkpt>
      <trkpt lat="47.69784" lon="-2.65864">
        <ele>134.16675</ele>
        <time>2022-09-17T13:03:10.930Z</time>
      </trkpt>
      <trkpt lat="47.69795" lon="-2.65836">
        <ele>134.1954</ele>
        <time>2022-09-17T13:03:18.066Z</time>
      </trkpt>
      <trkpt lat="47.69862" lon="-2.65952">
        <ele>134.330374</ele>
        <time>2022-09-17T13:03:39.306Z</time>
      </trkpt>
      <trkpt lat="47.69961" lon="-2.6612">
        <ele>133.891119</ele>
        <time>2022-09-17T13:04:08.496Z</time>
      </trkpt>
      <trkpt lat="47.69994" lon="-2.66208">
        <ele>133.655328</ele>
        <time>2022-09-17T13:04:21.083Z</time>
      </trkpt>
      <trkpt lat="47.69996" lon="-2.66251">
        <ele>133.598955</ele>
        <time>2022-09-17T13:04:26.470Z</time>
      </trkpt>
      <trkpt lat="47.69963" lon="-2.66389">
        <ele>133.406871</ele>
        <time>2022-09-17T13:04:45.813Z</time>
      </trkpt>
      <trkpt lat="47.69958" lon="-2.66437">
        <ele>133.342701</ele>
        <time>2022-09-17T13:04:53.120Z</time>
      </trkpt>
      <trkpt lat="47.69978" lon="-2.66586">
        <ele>133.460015</ele>
        <time>2022-09-17T13:05:14.870Z</time>
      </trkpt>
      <trkpt lat="47.69978" lon="-2.6659">
        <ele>133.463829</ele>
        <time>2022-09-17T13:05:15.498Z</time>
      </trkpt>
      <trkpt lat="47.69972" lon="-2.66591">
        <ele>133.473279</ele>
        <time>2022-09-17T13:05:17.216Z</time>
      </trkpt>
      <trkpt lat="47.69973" lon="-2.66607">
        <ele>133.488292</ele>
        <time>2022-09-17T13:05:20.318Z</time>
      </trkpt>
      <trkpt lat="47.69961" lon="-2.66633">
        <ele>133.518075</ele>
        <time>2022-09-17T13:05:27.213Z</time>
      </trkpt>
      <trkpt lat="47.69958" lon="-2.66645">
        <ele>133.529883</ele>
        <time>2022-09-17T13:05:29.913Z</time>
      </trkpt>
      <trkpt lat="47.69949" lon="-2.66657">
        <ele>133.546478</ele>
        <time>2022-09-17T13:05:33.983Z</time>
      </trkpt>
      <trkpt lat="47.69917" lon="-2.66669">
        <ele>133.473474</ele>
        <time>2022-09-17T13:05:44.491Z</time>
      </trkpt>
      <trkpt lat="47.69906" lon="-2.66691">
        <ele>133.296961</ele>
        <time>2022-09-17T13:05:50.240Z</time>
      </trkpt>
      <trkpt lat="47.69909" lon="-2.66699">
        <ele>133.238724</ele>
        <time>2022-09-17T13:05:52.048Z</time>
      </trkpt>
      <trkpt lat="47.69918" lon="-2.66701">
        <ele>133.148711</ele>
        <time>2022-09-17T13:05:55.008Z</time>
      </trkpt>
      <trkpt lat="47.69914" lon="-2.66709">
        <ele>133.0858</ele>
        <time>2022-09-17T13:05:56.947Z</time>
      </trkpt>
      <trkpt lat="47.69916" lon="-2.66747">
        <ele>132.836747</ele>
        <time>2022-09-17T13:06:04.731Z</time>
      </trkpt>
      <trkpt lat="47.69912" lon="-2.66756">
        <ele>132.772765</ele>
        <time>2022-09-17T13:06:06.692Z</time>
      </trkpt>
      <trkpt lat="47.69878" lon="-2.66768">
        <ele>132.437478</ele>
        <time>2022-09-17T13:06:16.763Z</time>
      </trkpt>
      <trkpt lat="47.69883" lon="-2.66803">
        <ele>132.207986</ele>
        <time>2022-09-17T13:06:23.537Z</time>
      </trkpt>
      <trkpt lat="47.69796" lon="-2.66836">
        <ele>130.864125</ele>
        <time>2022-09-17T13:06:43.150Z</time>
      </trkpt>
      <trkpt lat="47.69808" lon="-2.66899">
        <ele>130.035636</ele>
        <time>2022-09-17T13:06:55.322Z</time>
      </trkpt>
      <trkpt lat="47.69816" lon="-2.6695">
        <ele>129.380242</ele>
        <time>2022-09-17T13:07:04.879Z</time>
      </trkpt>
      <trkpt lat="47.69877" lon="-2.67223">
        <ele>125.68265</ele>
        <time>2022-09-17T13:07:57.619Z</time>
      </trkpt>
      <trkpt lat="47.69944" lon="-2.67378">
        <ele>124.575388</ele>
        <time>2022-09-17T13:08:33.270Z</time>
      </trkpt>
      <trkpt lat="47.69937" lon="-2.67385">
        <ele>124.534732</ele>
        <time>2022-09-17T13:08:35.048Z</time>
      </trkpt>
      <trkpt lat="47.69954" lon="-2.67415">
        <ele>124.398613</ele>
        <time>2022-09-17T13:08:41.007Z</time>
      </trkpt>
      <trkpt lat="47.69957" lon="-2.6742">
        <ele>124.376663</ele>
        <time>2022-09-17T13:08:41.860Z</time>
      </trkpt>
      <trkpt lat="47.70008" lon="-2.67451">
        <ele>124.159516</ele>
        <time>2022-09-17T13:08:53.771Z</time>
      </trkpt>
      <trkpt lat="47.70012" lon="-2.67434">
        <ele>124.284595</ele>
        <time>2022-09-17T13:08:57.447Z</time>
      </trkpt>
      <trkpt lat="47.70015" lon="-2.67435">
        <ele>124.307973</ele>
        <time>2022-09-17T13:08:58.048Z</time>
      </trkpt>
      <trkpt lat="47.70058" lon="-2.67459">
        <ele>124.775725</ele>
        <time>2022-09-17T13:09:11.388Z</time>
      </trkpt>
      <trkpt lat="47.70068" lon="-2.67418">
        <ele>125.079159</ele>
        <time>2022-09-17T13:09:21.032Z</time>
      </trkpt>
      <trkpt lat="47.70077" lon="-2.67412">
        <ele>125.177505</ele>
        <time>2022-09-17T13:09:24.148Z</time>
      </trkpt>
      <trkpt lat="47.70087" lon="-2.67454">
        <ele>125.484321</ele>
        <time>2022-09-17T13:09:33.770Z</time>
      </trkpt>
      <trkpt lat="47.70171" lon="-2.67365">
        <ele>126.130081</ele>
        <time>2022-09-17T13:09:59.851Z</time>
      </trkpt>
      <trkpt lat="47.70187" lon="-2.6734">
        <ele>126.202213</ele>
        <time>2022-09-17T13:10:04.868Z</time>
      </trkpt>
      <trkpt lat="47.70201" lon="-2.6729">
        <ele>126.321407</ele>
        <time>2022-09-17T13:10:12.961Z</time>
      </trkpt>
      <trkpt lat="47.70205" lon="-2.67261">
        <ele>126.385056</ele>
        <time>2022-09-17T13:10:17.273Z</time>
      </trkpt>
      <trkpt lat="47.70202" lon="-2.67105">
        <ele>124.316992</ele>
        <time>2022-09-17T13:10:34.782Z</time>
      </trkpt>
      <trkpt lat="47.70206" lon="-2.67056">
        <ele>123.128988</ele>
        <time>2022-09-17T13:10:39.746Z</time>
      </trkpt>
      <trkpt lat="47.70314" lon="-2.66422">
        <ele>99.089348</ele>
        <time>2022-09-17T13:11:36.943Z</time>
      </trkpt>
      <trkpt lat="47.70313" lon="-2.66363">
        <ele>96.653053</ele>
        <time>2022-09-17T13:11:41.956Z</time>
      </trkpt>
      <trkpt lat="47.70281" lon="-2.66072">
        <ele>84.833791</ele>
        <time>2022-09-17T13:12:07.478Z</time>
      </trkpt>
      <trkpt lat="47.70273" lon="-2.66019">
        <ele>82.961295</ele>
        <time>2022-09-17T13:12:12.199Z</time>
      </trkpt>
      <trkpt lat="47.70238" lon="-2.65913">
        <ele>78.878208</ele>
        <time>2022-09-17T13:12:22.907Z</time>
      </trkpt>
      <trkpt lat="47.70241" lon="-2.65898">
        <ele>78.385212</ele>
        <time>2022-09-17T13:12:24.491Z</time>
      </trkpt>
      <trkpt lat="47.70264" lon="-2.65879">
        <ele>77.995249</ele>
        <time>2022-09-17T13:12:28.266Z</time>
      </trkpt>
      <trkpt lat="47.70278" lon="-2.65859">
        <ele>77.715998</ele>
        <time>2022-09-17T13:12:31.138Z</time>
      </trkpt>
      <trkpt lat="47.70296" lon="-2.65829">
        <ele>77.319227</ele>
        <time>2022-09-17T13:12:35.900Z</time>
      </trkpt>
      <trkpt lat="47.70299" lon="-2.65829">
        <ele>77.272128</ele>
        <time>2022-09-17T13:12:38.120Z</time>
      </trkpt>
      <trkpt lat="47.70315" lon="-2.6585">
        <ele>76.961433</ele>
        <time>2022-09-17T13:12:44.212Z</time>
      </trkpt>
      <trkpt lat="47.70318" lon="-2.65843">
        <ele>76.885258</ele>
        <time>2022-09-17T13:12:47.787Z</time>
      </trkpt>
      <trkpt lat="47.70321" lon="-2.65845">
        <ele>76.835186</ele>
        <time>2022-09-17T13:12:50.157Z</time>
      </trkpt>
      <trkpt lat="47.70318" lon="-2.65843">
        <ele>76.785114</ele>
        <time>2022-09-17T13:12:52.527Z</time>
      </trkpt>
      <trkpt lat="47.70315" lon="-2.6585">
        <ele>76.70894</ele>
        <time>2022-09-17T13:12:56.102Z</time>
      </trkpt>
      <trkpt lat="47.70299" lon="-2.65829">
        <ele>76.398245</ele>
        <time>2022-09-17T13:13:02.287Z</time>
      </trkpt>
      <trkpt lat="47.70296" lon="-2.65829">
        <ele>76.351146</ele>
        <time>2022-09-17T13:13:04.506Z</time>
      </trkpt>
      <trkpt lat="47.70293" lon="-2.65828">
        <ele>76.307046</ele>
        <time>2022-09-17T13:13:06.604Z</time>
      </trkpt>
      <trkpt lat="47.70286" lon="-2.65819">
        <ele>76.171926</ele>
        <time>2022-09-17T13:13:08.316Z</time>
      </trkpt>
      <trkpt lat="47.70265" lon="-2.6584">
        <ele>75.802024</ele>
        <time>2022-09-17T13:13:25.871Z</time>
      </trkpt>
      <trkpt lat="47.70247" lon="-2.65817">
        <ele>75.847763</ele>
        <time>2022-09-17T13:13:41.802Z</time>
      </trkpt>
      <trkpt lat="47.70228" lon="-2.65733">
        <ele>76.068931</ele>
        <time>2022-09-17T13:14:23.579Z</time>
      </trkpt>
      <trkpt lat="47.70226" lon="-2.6571">
        <ele>76.126501</ele>
        <time>2022-09-17T13:14:34.467Z</time>
      </trkpt>
      <trkpt lat="47.70222" lon="-2.65671">
        <ele>76.223929</ele>
        <time>2022-09-17T13:14:52.886Z</time>
      </trkpt>
      <trkpt lat="47.70218" lon="-2.65622">
        <ele>76.346213</ele>
        <time>2022-09-17T13:15:15.982Z</time>
      </trkpt>
      <trkpt lat="47.70222" lon="-2.65589">
        <ele>76.42749</ele>
        <time>2022-09-17T13:15:31.326Z</time>
      </trkpt>
      <trkpt lat="47.7023" lon="-2.65576">
        <ele>76.447767</ele>
        <time>2022-09-17T13:15:39.516Z</time>
      </trkpt>
      <trkpt lat="47.7026" lon="-2.65562">
        <ele>76.493707</ele>
        <time>2022-09-17T13:16:01.534Z</time>
      </trkpt>
      <trkpt lat="47.70271" lon="-2.65564">
        <ele>76.509777</ele>
        <time>2022-09-17T13:16:09.297Z</time>
      </trkpt>
      <trkpt lat="47.70293" lon="-2.65514">
        <ele>76.568141</ele>
        <time>2022-09-17T13:16:37.316Z</time>
      </trkpt>
      <trkpt lat="47.70303" lon="-2.65403">
        <ele>76.677745</ele>
        <time>2022-09-17T13:17:29.933Z</time>
      </trkpt>
      <trkpt lat="47.70301" lon="-2.65368">
        <ele>77.006235</ele>
        <time>2022-09-17T13:17:46.180Z</time>
      </trkpt>
      <trkpt lat="47.70306" lon="-2.65338">
        <ele>77.519834</ele>
        <time>2022-09-17T13:18:00.665Z</time>
      </trkpt>
      <trkpt lat="47.70308" lon="-2.65326">
        <ele>77.731655</ele>
        <time>2022-09-17T13:18:06.634Z</time>
      </trkpt>
      <trkpt lat="47.70306" lon="-2.65277">
        <ele>78.538576</ele>
        <time>2022-09-17T13:18:29.424Z</time>
      </trkpt>
      <trkpt lat="47.70301" lon="-2.6527">
        <ele>78.711739</ele>
        <time>2022-09-17T13:18:34.305Z</time>
      </trkpt>
      <trkpt lat="47.70304" lon="-2.65254">
        <ele>78.981906</ele>
        <time>2022-09-17T13:18:41.924Z</time>
      </trkpt>
      <trkpt lat="47.70316" lon="-2.65235">
        <ele>79.413092</ele>
        <time>2022-09-17T13:18:54.122Z</time>
      </trkpt>
      <trkpt lat="47.70315" lon="-2.65201">
        <ele>79.970146</ele>
        <time>2022-09-17T13:19:09.862Z</time>
      </trkpt>
      <trkpt lat="47.70335" lon="-2.65133">
        <ele>81.444708</ele>
        <time>2022-09-17T13:19:44.815Z</time>
      </trkpt>
      <trkpt lat="47.70329" lon="-2.65128">
        <ele>82.097801</ele>
        <time>2022-09-17T13:19:48.186Z</time>
      </trkpt>
      <trkpt lat="47.70327" lon="-2.65126">
        <ele>82.339493</ele>
        <time>2022-09-17T13:19:49.462Z</time>
      </trkpt>
      <trkpt lat="47.7031" lon="-2.65115">
        <ele>84.038338</ele>
        <time>2022-09-17T13:19:58.374Z</time>
      </trkpt>
      <trkpt lat="47.70303" lon="-2.6511">
        <ele>84.768272</ele>
        <time>2022-09-17T13:20:02.295Z</time>
      </trkpt>
      <trkpt lat="47.70291" lon="-2.65102">
        <ele>85.968781</ele>
        <time>2022-09-17T13:20:08.658Z</time>
      </trkpt>
      <trkpt lat="47.70262" lon="-2.6508">
        <ele>88.915649</ele>
        <time>2022-09-17T13:20:27.444Z</time>
      </trkpt>
      <trkpt lat="47.70258" lon="-2.6507">
        <ele>89.655318</ele>
        <time>2022-09-17T13:20:32.543Z</time>
      </trkpt>
      <trkpt lat="47.70257" lon="-2.65067">
        <ele>89.876365</ele>
        <time>2022-09-17T13:20:34.172Z</time>
      </trkpt>
      <trkpt lat="47.70219" lon="-2.65063">
        <ele>93.317415</ele>
        <time>2022-09-17T13:21:02.702Z</time>
      </trkpt>
      <trkpt lat="47.70186" lon="-2.65063">
        <ele>96.394244</ele>
        <time>2022-09-17T13:21:30.184Z</time>
      </trkpt>
      <trkpt lat="47.70186" lon="-2.65019">
        <ele>99.503325</ele>
        <time>2022-09-17T13:21:55.808Z</time>
      </trkpt>
      <trkpt lat="47.70127" lon="-2.65002">
        <ele>106.336721</ele>
        <time>2022-09-17T13:22:49.689Z</time>
      </trkpt>
      <trkpt lat="47.70095" lon="-2.64987">
        <ele>110.172545</ele>
        <time>2022-09-17T13:23:21.418Z</time>
      </trkpt>
      <trkpt lat="47.70068" lon="-2.64986">
        <ele>113.33711</ele>
        <time>2022-09-17T13:23:45.065Z</time>
      </trkpt>
      <trkpt lat="47.70008" lon="-2.65015">
        <ele>119.175582</ele>
        <time>2022-09-17T13:24:35.026Z</time>
      </trkpt>
      <trkpt lat="47.70006" lon="-2.64697">
        <ele>128.489832</ele>
        <time>2022-09-17T13:26:23.903Z</time>
      </trkpt>
      <trkpt lat="47.69978" lon="-2.64649">
        <ele>129.651626</ele>
        <time>2022-09-17T13:26:53.352Z</time>
      </trkpt>
      <trkpt lat="47.69913" lon="-2.64675">
        <ele>131.495331</ele>
        <time>2022-09-17T13:27:40.101Z</time>
      </trkpt>
      <trkpt lat="47.69838" lon="-2.64415">
        <ele>134.329342</ele>
        <time>2022-09-17T13:29:52.297Z</time>
      </trkpt>
      <trkpt lat="47.69837" lon="-2.64385">
        <ele>134.173338</ele>
        <time>2022-09-17T13:30:06.453Z</time>
      </trkpt>
      <trkpt lat="47.69834" lon="-2.64248">
        <ele>132.783781</ele>
        <time>2022-09-17T13:31:10.641Z</time>
      </trkpt>
      <trkpt lat="47.6988" lon="-2.64205">
        <ele>131.963943</ele>
        <time>2022-09-17T13:31:48.522Z</time>
      </trkpt>
      <trkpt lat="47.69948" lon="-2.64207">
        <ele>129.503655</ele>
        <time>2022-09-17T13:32:35.747Z</time>
      </trkpt>
      <trkpt lat="47.69988" lon="-2.64175">
        <ele>127.495113</ele>
        <time>2022-09-17T13:33:07.661Z</time>
      </trkpt>
      <trkpt lat="47.70018" lon="-2.64021">
        <ele>123.487057</ele>
        <time>2022-09-17T13:34:22.646Z</time>
      </trkpt>
      <trkpt lat="47.70018" lon="-2.64021">
        <ele>123.487057</ele>
        <time>2022-09-17T13:34:22.648Z</time>
      </trkpt>
      <trkpt lat="47.70021" lon="-2.64048">
        <ele>123.229884</ele>
        <time>2022-09-17T13:34:25.441Z</time>
      </trkpt>
      <trkpt lat="47.70011" lon="-2.64177">
        <ele>122.026084</ele>
        <time>2022-09-17T13:34:50.011Z</time>
      </trkpt>
      <trkpt lat="47.70026" lon="-2.64214">
        <ele>121.634507</ele>
        <time>2022-09-17T13:34:59.920Z</time>
      </trkpt>
      <trkpt lat="47.69999" lon="-2.64496">
        <ele>124.372408</ele>
        <time>2022-09-17T13:36:20.437Z</time>
      </trkpt>
      <trkpt lat="47.70009" lon="-2.64614">
        <ele>125.263382</ele>
        <time>2022-09-17T13:36:51.349Z</time>
      </trkpt>
      <trkpt lat="47.70006" lon="-2.64697">
        <ele>125.841305</ele>
        <time>2022-09-17T13:37:11.510Z</time>
      </trkpt>
      <trkpt lat="47.70008" lon="-2.65015">
        <ele>127.468437</ele>
        <time>2022-09-17T13:38:25.515Z</time>
      </trkpt>
      <trkpt lat="47.7" lon="-2.65121">
        <ele>128.227663</ele>
        <time>2022-09-17T13:39:15.681Z</time>
      </trkpt>
      <trkpt lat="47.69961" lon="-2.6519">
        <ele>128.947189</ele>
        <time>2022-09-17T13:39:57.702Z</time>
      </trkpt>
      <trkpt lat="47.69938" lon="-2.65319">
        <ele>129.944341</ele>
        <time>2022-09-17T13:41:00.029Z</time>
      </trkpt>
      <trkpt lat="47.69913" lon="-2.65426">
        <ele>130.625934</ele>
        <time>2022-09-17T13:41:53.035Z</time>
      </trkpt>
      <trkpt lat="47.6991" lon="-2.65495">
        <ele>131.043271</ele>
        <time>2022-09-17T13:42:25.500Z</time>
      </trkpt>
      <trkpt lat="47.69907" lon="-2.65538">
        <ele>131.298976</ele>
        <time>2022-09-17T13:42:45.380Z</time>
      </trkpt>
      <trkpt lat="47.69879" lon="-2.65611">
        <ele>131.801721</ele>
        <time>2022-09-17T13:43:24.963Z</time>
      </trkpt>
      <trkpt lat="47.6986" lon="-2.65636">
        <ele>132.025297</ele>
        <time>2022-09-17T13:43:42.541Z</time>
      </trkpt>
      <trkpt lat="47.6987" lon="-2.65651">
        <ele>132.150146</ele>
        <time>2022-09-17T13:43:46.051Z</time>
      </trkpt>
      <trkpt lat="47.69801" lon="-2.65789">
        <ele>132.986933</ele>
        <time>2022-09-17T13:44:15.597Z</time>
      </trkpt>
      <trkpt lat="47.69793" lon="-2.65809">
        <ele>133.019037</ele>
        <time>2022-09-17T13:44:19.590Z</time>
      </trkpt>
      <trkpt lat="47.69788" lon="-2.65824">
        <ele>133.042215</ele>
        <time>2022-09-17T13:44:22.572Z</time>
      </trkpt>
      <trkpt lat="47.69795" lon="-2.65836">
        <ele>133.063872</ele>
        <time>2022-09-17T13:44:25.341Z</time>
      </trkpt>
      <trkpt lat="47.69862" lon="-2.65952">
        <ele>133.274733</ele>
        <time>2022-09-17T13:44:49.677Z</time>
      </trkpt>
      <trkpt lat="47.69992" lon="-2.65931">
        <ele>126.642092</ele>
        <time>2022-09-17T13:45:23.010Z</time>
      </trkpt>
      <trkpt lat="47.70196" lon="-2.66203">
        <ele>102.214351</ele>
        <time>2022-09-17T13:46:21.429Z</time>
      </trkpt>
      <trkpt lat="47.70212" lon="-2.66216">
        <ele>101.107617</ele>
        <time>2022-09-17T13:46:25.201Z</time>
      </trkpt>
      <trkpt lat="47.70227" lon="-2.66202">
        <ele>99.963262</ele>
        <time>2022-09-17T13:46:29.112Z</time>
      </trkpt>
      <trkpt lat="47.70281" lon="-2.66072">
        <ele>93.46461</ele>
        <time>2022-09-17T13:46:53.318Z</time>
      </trkpt>
      <trkpt lat="47.70313" lon="-2.66363">
        <ele>97.273261</ele>
        <time>2022-09-17T13:47:57.442Z</time>
      </trkpt>
      <trkpt lat="47.70314" lon="-2.66422">
        <ele>99.368747</ele>
        <time>2022-09-17T13:48:16.418Z</time>
      </trkpt>
      <trkpt lat="47.70247" lon="-2.66817">
        <ele>114.729803</ele>
        <time>2022-09-17T13:50:29.388Z</time>
      </trkpt>
      <trkpt lat="47.70206" lon="-2.67056">
        <ele>122.947658</ele>
        <time>2022-09-17T13:51:48.424Z</time>
      </trkpt>
      <trkpt lat="47.70202" lon="-2.67105">
        <ele>124.534261</ele>
        <time>2022-09-17T13:52:00.936Z</time>
      </trkpt>
      <trkpt lat="47.70205" lon="-2.67261">
        <ele>125.898134</ele>
        <time>2022-09-17T13:52:29.353Z</time>
      </trkpt>
      <trkpt lat="47.70201" lon="-2.6729">
        <ele>126.044049</ele>
        <time>2022-09-17T13:52:32.898Z</time>
      </trkpt>
      <trkpt lat="47.70187" lon="-2.6734">
        <ele>126.317306</ele>
        <time>2022-09-17T13:52:39.217Z</time>
      </trkpt>
      <trkpt lat="47.70171" lon="-2.67365">
        <ele>126.482668</ele>
        <time>2022-09-17T13:52:43.049Z</time>
      </trkpt>
      <trkpt lat="47.70087" lon="-2.67454">
        <ele>126.669176</ele>
        <time>2022-09-17T13:53:02.002Z</time>
      </trkpt>
      <trkpt lat="47.70068" lon="-2.67488">
        <ele>126.70329</ele>
        <time>2022-09-17T13:53:08.201Z</time>
      </trkpt>
      <trkpt lat="47.70057" lon="-2.67523">
        <ele>126.733431</ele>
        <time>2022-09-17T13:53:14.158Z</time>
      </trkpt>
      <trkpt lat="47.70048" lon="-2.67588">
        <ele>126.823265</ele>
        <time>2022-09-17T13:53:24.492Z</time>
      </trkpt>
      <trkpt lat="47.70048" lon="-2.67591">
        <ele>126.833062</ele>
        <time>2022-09-17T13:53:25.127Z</time>
      </trkpt>
      <trkpt lat="47.70032" lon="-2.67758">
        <ele>127.297707</ele>
        <time>2022-09-17T13:53:51.371Z</time>
      </trkpt>
      <trkpt lat="47.70018" lon="-2.67898">
        <ele>126.806052</ele>
        <time>2022-09-17T13:54:08.824Z</time>
      </trkpt>
      <trkpt lat="47.70001" lon="-2.67994">
        <ele>125.745616</ele>
        <time>2022-09-17T13:54:19.413Z</time>
      </trkpt>
      <trkpt lat="47.69987" lon="-2.68059">
        <ele>125.026318</ele>
        <time>2022-09-17T13:54:26.261Z</time>
      </trkpt>
      <trkpt lat="47.69942" lon="-2.68264">
        <ele>122.636823</ele>
        <time>2022-09-17T13:54:48.232Z</time>
      </trkpt>
      <trkpt lat="47.69924" lon="-2.68319">
        <ele>121.955861</ele>
        <time>2022-09-17T13:54:55.166Z</time>
      </trkpt>
      <trkpt lat="47.69916" lon="-2.68338">
        <ele>121.698232</ele>
        <time>2022-09-17T13:54:58.081Z</time>
      </trkpt>
      <trkpt lat="47.69904" lon="-2.68366">
        <ele>121.704121</ele>
        <time>2022-09-17T13:55:02.241Z</time>
      </trkpt>
      <trkpt lat="47.69988" lon="-2.68446">
        <ele>121.826917</ele>
        <time>2022-09-17T13:55:37.143Z</time>
      </trkpt>
      <trkpt lat="47.70021" lon="-2.68453">
        <ele>121.868455</ele>
        <time>2022-09-17T13:55:48.407Z</time>
      </trkpt>
      <trkpt lat="47.70053" lon="-2.68448">
        <ele>121.738421</ele>
        <time>2022-09-17T13:55:58.660Z</time>
      </trkpt>
      <trkpt lat="47.70076" lon="-2.68434">
        <ele>120.983773</ele>
        <time>2022-09-17T13:56:06.103Z</time>
      </trkpt>
      <trkpt lat="47.70104" lon="-2.6843">
        <ele>120.12948</ele>
        <time>2022-09-17T13:56:14.087Z</time>
      </trkpt>
      <trkpt lat="47.70123" lon="-2.68419">
        <ele>119.521229</ele>
        <time>2022-09-17T13:56:19.467Z</time>
      </trkpt>
      <trkpt lat="47.70232" lon="-2.68363">
        <ele>115.66976</ele>
        <time>2022-09-17T13:56:48.214Z</time>
      </trkpt>
      <trkpt lat="47.70253" lon="-2.6834">
        <ele>114.317739</ele>
        <time>2022-09-17T13:56:54.010Z</time>
      </trkpt>
      <trkpt lat="47.70261" lon="-2.68299">
        <ele>112.747346</ele>
        <time>2022-09-17T13:57:00.798Z</time>
      </trkpt>
      <trkpt lat="47.70292" lon="-2.68243">
        <ele>110.168007</ele>
        <time>2022-09-17T13:57:12.101Z</time>
      </trkpt>
      <trkpt lat="47.70328" lon="-2.68193">
        <ele>107.512856</ele>
        <time>2022-09-17T13:57:23.926Z</time>
      </trkpt>
      <trkpt lat="47.70313" lon="-2.68273">
        <ele>105.581022</ele>
        <time>2022-09-17T13:57:37.852Z</time>
      </trkpt>
      <trkpt lat="47.70322" lon="-2.68338">
        <ele>104.268661</ele>
        <time>2022-09-17T13:57:49.312Z</time>
      </trkpt>
      <trkpt lat="47.70318" lon="-2.6839">
        <ele>103.248573</ele>
        <time>2022-09-17T13:57:58.448Z</time>
      </trkpt>
      <trkpt lat="47.70307" lon="-2.68449">
        <ele>102.040565</ele>
        <time>2022-09-17T13:58:10.257Z</time>
      </trkpt>
      <trkpt lat="47.70292" lon="-2.68471">
        <ele>101.530745</ele>
        <time>2022-09-17T13:58:16.019Z</time>
      </trkpt>
      <trkpt lat="47.70284" lon="-2.68468">
        <ele>101.423939</ele>
        <time>2022-09-17T13:58:19.133Z</time>
      </trkpt>
      <trkpt lat="47.70276" lon="-2.6848">
        <ele>101.273034</ele>
        <time>2022-09-17T13:58:22.501Z</time>
      </trkpt>
      <trkpt lat="47.70282" lon="-2.68502">
        <ele>101.060602</ele>
        <time>2022-09-17T13:58:27.162Z</time>
      </trkpt>
      <trkpt lat="47.70276" lon="-2.6855">
        <ele>100.644332</ele>
        <time>2022-09-17T13:58:36.776Z</time>
      </trkpt>
      <trkpt lat="47.70266" lon="-2.68574">
        <ele>100.38878</ele>
        <time>2022-09-17T13:58:43.003Z</time>
      </trkpt>
      <trkpt lat="47.7028" lon="-2.68791">
        <ele>98.024392</ele>
        <time>2022-09-17T13:59:24.087Z</time>
      </trkpt>
      <trkpt lat="47.70291" lon="-2.68858">
        <ele>97.072254</ele>
        <time>2022-09-17T13:59:36.509Z</time>
      </trkpt>
      <trkpt lat="47.70298" lon="-2.69046">
        <ele>94.095104</ele>
        <time>2022-09-17T14:01:04.856Z</time>
      </trkpt>
      <trkpt lat="47.70307" lon="-2.69305">
        <ele>88.577386</ele>
        <time>2022-09-17T14:03:06.351Z</time>
      </trkpt>
      <trkpt lat="47.70313" lon="-2.6934">
        <ele>87.553824</ele>
        <time>2022-09-17T14:03:22.929Z</time>
      </trkpt>
      <trkpt lat="47.70303" lon="-2.69374">
        <ele>86.467599</ele>
        <time>2022-09-17T14:03:40.465Z</time>
      </trkpt>
      <trkpt lat="47.70326" lon="-2.69398">
        <ele>85.262011</ele>
        <time>2022-09-17T14:03:59.970Z</time>
      </trkpt>
      <trkpt lat="47.70345" lon="-2.69462">
        <ele>83.23036</ele>
        <time>2022-09-17T14:04:32.807Z</time>
      </trkpt>
      <trkpt lat="47.70345" lon="-2.69462">
        <ele>83.23036</ele>
        <time>2022-09-17T14:04:33.143Z</time>
      </trkpt>
      <trkpt lat="47.70394" lon="-2.6949">
        <ele>81.030171</ele>
        <time>2022-09-17T14:05:09.872Z</time>
      </trkpt>
      <trkpt lat="47.70399" lon="-2.69578">
        <ele>78.552245</ele>
        <time>2022-09-17T14:05:17.990Z</time>
      </trkpt>
      <trkpt lat="47.70396" lon="-2.69619">
        <ele>77.414345</ele>
        <time>2022-09-17T14:05:22.007Z</time>
      </trkpt>
      <trkpt lat="47.70381" lon="-2.69683">
        <ele>75.508426</ele>
        <time>2022-09-17T14:05:28.340Z</time>
      </trkpt>
      <trkpt lat="47.70355" lon="-2.6977">
        <ele>73.397312</ele>
        <time>2022-09-17T14:05:37.375Z</time>
      </trkpt>
      <trkpt lat="47.70326" lon="-2.69823">
        <ele>71.850702</ele>
        <time>2022-09-17T14:05:44.070Z</time>
      </trkpt>
      <trkpt lat="47.70323" lon="-2.69839">
        <ele>71.491646</ele>
        <time>2022-09-17T14:05:45.482Z</time>
      </trkpt>
      <trkpt lat="47.70309" lon="-2.69873">
        <ele>70.582894</ele>
        <time>2022-09-17T14:05:49.566Z</time>
      </trkpt>
      <trkpt lat="47.70296" lon="-2.69912">
        <ele>69.619493</ele>
        <time>2022-09-17T14:05:56.989Z</time>
      </trkpt>
      <trkpt lat="47.70275" lon="-2.69944">
        <ele>69.116348</ele>
        <time>2022-09-17T14:06:04.925Z</time>
      </trkpt>
      <trkpt lat="47.70253" lon="-2.69965">
        <ele>68.739398</ele>
        <time>2022-09-17T14:06:11.592Z</time>
      </trkpt>
      <trkpt lat="47.70233" lon="-2.69973">
        <ele>68.418576</ele>
        <time>2022-09-17T14:06:17.839Z</time>
      </trkpt>
      <trkpt lat="47.70213" lon="-2.69995">
        <ele>68.054756</ele>
        <time>2022-09-17T14:06:24.317Z</time>
      </trkpt>
      <trkpt lat="47.70176" lon="-2.70038">
        <ele>67.354357</ele>
        <time>2022-09-17T14:06:38.560Z</time>
      </trkpt>
      <trkpt lat="47.70153" lon="-2.70086">
        <ele>66.815665</ele>
        <time>2022-09-17T14:06:51.635Z</time>
      </trkpt>
      <trkpt lat="47.70134" lon="-2.70151">
        <ele>66.510089</ele>
        <time>2022-09-17T14:07:07.393Z</time>
      </trkpt>
      <trkpt lat="47.70107" lon="-2.70203">
        <ele>66.219304</ele>
        <time>2022-09-17T14:07:21.678Z</time>
      </trkpt>
      <trkpt lat="47.69962" lon="-2.70354">
        <ele>64.140617</ele>
        <time>2022-09-17T14:08:11.553Z</time>
      </trkpt>
      <trkpt lat="47.69927" lon="-2.70375">
        <ele>63.527581</ele>
        <time>2022-09-17T14:08:21.725Z</time>
      </trkpt>
      <trkpt lat="47.69895" lon="-2.70408">
        <ele>62.886775</ele>
        <time>2022-09-17T14:08:32.464Z</time>
      </trkpt>
      <trkpt lat="47.69835" lon="-2.70456">
        <ele>63.029802</ele>
        <time>2022-09-17T14:08:52.161Z</time>
      </trkpt>
      <trkpt lat="47.69826" lon="-2.70457">
        <ele>63.069953</ele>
        <time>2022-09-17T14:08:54.579Z</time>
      </trkpt>
      <trkpt lat="47.69816" lon="-2.70477">
        <ele>63.149236</ele>
        <time>2022-09-17T14:08:59.737Z</time>
      </trkpt>
      <trkpt lat="47.69784" lon="-2.70504">
        <ele>63.328843</ele>
        <time>2022-09-17T14:09:12.876Z</time>
      </trkpt>
      <trkpt lat="47.69767" lon="-2.70535">
        <ele>63.459808</ele>
        <time>2022-09-17T14:09:23.985Z</time>
      </trkpt>
      <trkpt lat="47.6976" lon="-2.70533">
        <ele>63.492201</ele>
        <time>2022-09-17T14:09:27.253Z</time>
      </trkpt>
      <trkpt lat="47.69762" lon="-2.70475">
        <ele>64.188637</ele>
        <time>2022-09-17T14:09:45.605Z</time>
      </trkpt>
      <trkpt lat="47.69753" lon="-2.70449">
        <ele>64.902661</ele>
        <time>2022-09-17T14:09:54.509Z</time>
      </trkpt>
      <trkpt lat="47.69736" lon="-2.7042">
        <ele>65.872327</ele>
        <time>2022-09-17T14:10:07.654Z</time>
      </trkpt>
      <trkpt lat="47.69719" lon="-2.70366">
        <ele>67.359144</ele>
        <time>2022-09-17T14:10:28.920Z</time>
      </trkpt>
      <trkpt lat="47.69696" lon="-2.70329">
        <ele>68.636834</ele>
        <time>2022-09-17T14:10:46.963Z</time>
      </trkpt>
      <trkpt lat="47.69666" lon="-2.70264">
        <ele>70.458447</ele>
        <time>2022-09-17T14:11:13.103Z</time>
      </trkpt>
      <trkpt lat="47.6965" lon="-2.70264">
        <ele>70.735635</ele>
        <time>2022-09-17T14:11:22.585Z</time>
      </trkpt>
      <trkpt lat="47.69641" lon="-2.70282">
        <ele>71.012532</ele>
        <time>2022-09-17T14:11:31.350Z</time>
      </trkpt>
      <trkpt lat="47.69639" lon="-2.70323">
        <ele>71.517199</ele>
        <time>2022-09-17T14:11:46.271Z</time>
      </trkpt>
      <trkpt lat="47.69648" lon="-2.70446">
        <ele>73.041634</ele>
        <time>2022-09-17T14:12:16.409Z</time>
      </trkpt>
      <trkpt lat="47.69635" lon="-2.70497">
        <ele>73.406994</ele>
        <time>2022-09-17T14:12:27.842Z</time>
      </trkpt>
      <trkpt lat="47.69621" lon="-2.70518">
        <ele>72.854154</ele>
        <time>2022-09-17T14:12:33.701Z</time>
      </trkpt>
      <trkpt lat="47.69594" lon="-2.7054">
        <ele>71.981043</ele>
        <time>2022-09-17T14:12:42.194Z</time>
      </trkpt>
      <trkpt lat="47.69489" lon="-2.70559">
        <ele>68.998891</ele>
        <time>2022-09-17T14:13:10.010Z</time>
      </trkpt>
      <trkpt lat="47.69466" lon="-2.70571">
        <ele>68.154282</ele>
        <time>2022-09-17T14:13:15.630Z</time>
      </trkpt>
      <trkpt lat="47.69412" lon="-2.70623">
        <ele>65.034191</ele>
        <time>2022-09-17T14:13:30.297Z</time>
      </trkpt>
      <trkpt lat="47.6936" lon="-2.70634">
        <ele>62.441599</ele>
        <time>2022-09-17T14:13:42.941Z</time>
      </trkpt>
      <trkpt lat="47.69285" lon="-2.70698">
        <ele>59.848579</ele>
        <time>2022-09-17T14:14:04.875Z</time>
      </trkpt>
      <trkpt lat="47.69267" lon="-2.70636">
        <ele>60.002602</ele>
        <time>2022-09-17T14:14:12.311Z</time>
      </trkpt>
      <trkpt lat="47.69258" lon="-2.70605">
        <ele>60.078002</ele>
        <time>2022-09-17T14:14:16.389Z</time>
      </trkpt>
      <trkpt lat="47.69243" lon="-2.70553">
        <ele>60.206535</ele>
        <time>2022-09-17T14:14:24.869Z</time>
      </trkpt>
      <trkpt lat="47.6924" lon="-2.7054">
        <ele>60.237318</ele>
        <time>2022-09-17T14:14:28.113Z</time>
      </trkpt>
      <trkpt lat="47.69236" lon="-2.70528">
        <ele>60.267892</ele>
        <time>2022-09-17T14:14:31.680Z</time>
      </trkpt>
      <trkpt lat="47.69205" lon="-2.70404">
        <ele>63.363506</ele>
        <time>2022-09-17T14:15:14.634Z</time>
      </trkpt>
      <trkpt lat="47.69206" lon="-2.70348">
        <ele>65.091176</ele>
        <time>2022-09-17T14:15:32.046Z</time>
      </trkpt>
      <trkpt lat="47.69215" lon="-2.70297">
        <ele>66.72693</ele>
        <time>2022-09-17T14:15:47.000Z</time>
      </trkpt>
      <trkpt lat="47.69218" lon="-2.70251">
        <ele>68.187357</ele>
        <time>2022-09-17T14:15:59.018Z</time>
      </trkpt>
      <trkpt lat="47.6921" lon="-2.7018">
        <ele>69.492897</ele>
        <time>2022-09-17T14:16:16.182Z</time>
      </trkpt>
      <trkpt lat="47.69151" lon="-2.70052">
        <ele>71.749821</ele>
        <time>2022-09-17T14:16:47.995Z</time>
      </trkpt>
      <trkpt lat="47.69142" lon="-2.70006">
        <ele>72.445538</ele>
        <time>2022-09-17T14:16:55.412Z</time>
      </trkpt>
      <trkpt lat="47.69128" lon="-2.69968">
        <ele>72.697885</ele>
        <time>2022-09-17T14:17:01.351Z</time>
      </trkpt>
      <trkpt lat="47.69071" lon="-2.69829">
        <ele>73.334558</ele>
        <time>2022-09-17T14:17:25.434Z</time>
      </trkpt>
      <trkpt lat="47.69" lon="-2.69662">
        <ele>73.612011</ele>
        <time>2022-09-17T14:17:53.858Z</time>
      </trkpt>
      <trkpt lat="47.68914" lon="-2.69463">
        <ele>72.433495</ele>
        <time>2022-09-17T14:18:22.714Z</time>
      </trkpt>
      <trkpt lat="47.68842" lon="-2.69341">
        <ele>70.472439</ele>
        <time>2022-09-17T14:18:39.379Z</time>
      </trkpt>
      <trkpt lat="47.68801" lon="-2.69302">
        <ele>68.539562</ele>
        <time>2022-09-17T14:18:46.057Z</time>
      </trkpt>
      <trkpt lat="47.68706" lon="-2.69244">
        <ele>64.158263</ele>
        <time>2022-09-17T14:19:00.004Z</time>
      </trkpt>
      <trkpt lat="47.68686" lon="-2.69234">
        <ele>63.290398</ele>
        <time>2022-09-17T14:19:02.724Z</time>
      </trkpt>
      <trkpt lat="47.68684" lon="-2.69238">
        <ele>63.131446</ele>
        <time>2022-09-17T14:19:03.436Z</time>
      </trkpt>
      <trkpt lat="47.6866" lon="-2.69244">
        <ele>62.242928</ele>
        <time>2022-09-17T14:19:07.982Z</time>
      </trkpt>
      <trkpt lat="47.68658" lon="-2.69244">
        <ele>62.177625</ele>
        <time>2022-09-17T14:19:08.339Z</time>
      </trkpt>
      <trkpt lat="47.68631" lon="-2.6935">
        <ele>59.702105</ele>
        <time>2022-09-17T14:19:22.886Z</time>
      </trkpt>
      <trkpt lat="47.68592" lon="-2.69422">
        <ele>57.649082</ele>
        <time>2022-09-17T14:19:35.659Z</time>
      </trkpt>
      <trkpt lat="47.68522" lon="-2.69555">
        <ele>56.895005</ele>
        <time>2022-09-17T14:19:54.396Z</time>
      </trkpt>
    </trkseg>
  </trk>
</gpx>